createdAt,value
2023-02-18T00:02:23.530Z,72.01
2023-02-18T00:04:48.498Z,72.53
2023-02-18T00:07:12.163Z,72.66
2023-02-18T00:09:35.760Z,74.18
2023-02-18T00:11:59.425Z,73.12
2023-02-18T00:14:23.063Z,73.24
2023-02-18T00:16:47.511Z,72.99
2023-02-18T00:19:14.739Z,72.81
2023-02-18T00:21:40.995Z,73.33
2023-02-18T00:24:05.477Z,72.83
2023-02-18T00:26:29.446Z,73.29
2023-02-18T00:28:54.421Z,74.24
2023-02-18T00:31:23.898Z,73.93
2023-02-18T00:33:47.657Z,74.17
2023-02-18T00:36:15.276Z,74.11
2023-02-18T00:38:40.583Z,75.25
2023-02-18T00:41:04.921Z,74.97
2023-02-18T00:43:29.313Z,75.01
2023-02-18T00:45:53.443Z,74.69
2023-02-18T00:48:17.040Z,75.65
2023-02-18T00:50:40.692Z,75.46
2023-02-18T00:53:04.331Z,75.38
2023-02-18T00:55:29.345Z,74.97
2023-02-18T00:57:52.957Z,75.43
2023-02-18T01:00:17.720Z,75.41
2023-02-18T01:02:41.428Z,75.32
2023-02-18T01:05:05.267Z,75.97
2023-02-18T01:07:28.974Z,75.46
2023-02-18T01:09:52.686Z,75.52
2023-02-18T01:12:18.248Z,75.50
2023-02-18T01:14:42.057Z,76.17
2023-02-18T01:17:05.702Z,76.61
2023-02-18T01:19:29.322Z,76.08
2023-02-18T01:21:52.925Z,76.01
2023-02-18T01:24:16.550Z,76.61
2023-02-18T01:26:40.237Z,75.96
2023-02-18T01:29:06.364Z,76.50
2023-02-18T01:31:30.115Z,76.72
2023-02-18T01:33:55.830Z,76.51
2023-02-18T01:36:19.497Z,76.61
2023-02-18T01:38:43.502Z,76.58
2023-02-18T01:41:08.065Z,76.58
2023-02-18T01:43:32.004Z,76.24
2023-02-18T01:46:20.272Z,76.51
2023-02-18T01:48:49.314Z,76.41
2023-02-18T01:51:18.922Z,76.48
2023-02-18T01:53:52.911Z,76.03
2023-02-18T01:56:24.533Z,76.98
2023-02-18T01:58:49.232Z,75.92
2023-02-18T02:01:13.227Z,76.07
2023-02-18T02:03:39.406Z,76.64
2023-02-18T02:06:03.069Z,75.80
2023-02-18T02:08:26.876Z,76.95
2023-02-18T02:11:09.670Z,76.46
2023-02-18T02:13:53.745Z,76.54
2023-02-18T02:16:27.757Z,76.37
2023-02-18T02:19:11.295Z,77.29
2023-02-18T02:22:10.226Z,77.05
2023-02-18T02:25:13.512Z,76.56
2023-02-18T02:28:07.854Z,76.47
2023-02-18T02:31:20.334Z,76.50
2023-02-18T02:34:29.081Z,76.63
2023-02-18T02:37:00.492Z,76.93
2023-02-18T02:39:36.641Z,77.20
2023-02-18T02:42:11.462Z,76.33
2023-02-18T02:44:47.387Z,76.62
2023-02-18T02:47:20.772Z,76.06
2023-02-18T02:49:55.036Z,77.11
2023-02-18T02:52:25.342Z,76.36
2023-02-18T02:54:49.424Z,76.70
2023-02-18T02:57:47.991Z,76.47
2023-02-18T03:00:20.911Z,77.11
2023-02-18T03:03:07.293Z,76.46
2023-02-18T03:05:49.485Z,76.80
2023-02-18T03:08:40.491Z,77.10
2023-02-18T03:11:08.011Z,76.70
2023-02-18T03:13:57.086Z,75.93
2023-02-18T03:16:34.702Z,76.27
2023-02-18T03:19:07.295Z,76.44
2023-02-18T03:21:37.424Z,76.74
2023-02-18T03:24:08.998Z,76.94
2023-02-18T03:26:35.912Z,76.33
2023-02-18T03:29:04.685Z,76.66
2023-02-18T03:31:31.675Z,76.23
2023-02-18T03:34:00.843Z,76.21
2023-02-18T03:36:26.124Z,75.79
2023-02-18T03:38:58.314Z,75.30
2023-02-18T03:41:22.364Z,75.59
2023-02-18T03:43:52.083Z,75.79
2023-02-18T03:46:16.094Z,75.38
2023-02-18T03:48:40.882Z,75.60
2023-02-18T03:51:04.583Z,75.58
2023-02-18T03:53:28.157Z,74.85
2023-02-18T03:55:53.250Z,74.93
2023-02-18T03:58:16.881Z,74.80
2023-02-18T04:00:40.541Z,74.76
2023-02-18T04:03:04.287Z,75.35
2023-02-18T04:05:28.684Z,75.19
2023-02-18T04:07:52.292Z,74.50
2023-02-18T04:10:15.984Z,75.00
2023-02-18T04:12:40.998Z,75.52
2023-02-18T04:15:04.970Z,74.67
2023-02-18T04:17:28.587Z,74.46
2023-02-18T04:19:52.279Z,74.68
2023-02-18T04:22:15.928Z,74.63
2023-02-18T04:24:39.613Z,74.47
2023-02-18T04:27:03.282Z,75.47
2023-02-18T04:29:28.553Z,74.59
2023-02-18T04:31:52.136Z,74.15
2023-02-18T04:34:16.018Z,74.55
2023-02-18T04:36:39.640Z,74.36
2023-02-18T04:39:03.323Z,75.31
2023-02-18T04:41:27.044Z,73.98
2023-02-18T04:43:50.702Z,74.66
2023-02-18T04:46:15.819Z,74.72
2023-02-18T04:48:39.535Z,74.71
2023-02-18T04:51:03.320Z,73.65
2023-02-18T04:53:27.031Z,74.15
2023-02-18T04:55:51.992Z,75.21
2023-02-18T04:58:15.706Z,75.19
2023-02-18T05:00:39.301Z,74.45
2023-02-18T05:03:04.565Z,74.44
2023-02-18T05:05:28.229Z,74.83
2023-02-18T05:07:51.866Z,74.42
2023-02-18T05:10:19.106Z,74.25
2023-02-18T05:12:42.813Z,73.99
2023-02-18T05:15:07.846Z,73.89
2023-02-18T05:17:31.498Z,74.15
2023-02-18T05:19:56.466Z,73.93
2023-02-18T05:22:20.259Z,73.93
2023-02-18T05:24:43.817Z,73.62
2023-02-18T05:27:07.442Z,74.32
2023-02-18T05:29:31.035Z,73.38
2023-02-18T05:31:54.785Z,73.87
2023-02-18T05:34:18.415Z,72.61
2023-02-18T05:36:43.508Z,72.81
2023-02-18T05:39:07.078Z,72.59
2023-02-18T05:41:30.794Z,72.26
2023-02-18T05:44:11.713Z,72.85
2023-02-18T05:46:35.704Z,72.30
2023-02-18T05:48:59.382Z,71.28
2023-02-18T05:51:23.058Z,71.57
2023-02-18T05:53:48.055Z,71.28
2023-02-18T05:56:11.785Z,71.75
2023-02-18T05:58:35.518Z,71.48
2023-02-18T06:00:59.172Z,71.57
2023-02-18T06:03:22.868Z,70.67
2023-02-18T06:05:47.973Z,69.65
2023-02-18T06:08:11.631Z,70.01
2023-02-18T06:10:36.685Z,69.74
2023-02-18T06:13:02.400Z,69.82
2023-02-18T06:15:26.023Z,69.22
2023-02-18T06:17:49.606Z,70.04
2023-02-18T06:20:14.282Z,69.45
2023-02-18T06:22:37.858Z,69.49
2023-02-18T06:25:01.577Z,69.51
2023-02-18T06:27:26.590Z,69.69
2023-02-18T06:29:50.241Z,68.93
2023-02-18T06:32:13.969Z,68.53
2023-02-18T06:34:37.735Z,69.55
2023-02-18T06:37:01.514Z,68.72
2023-02-18T06:39:25.214Z,69.14
2023-02-18T06:41:48.778Z,69.10
2023-02-18T06:44:15.375Z,69.16
2023-02-18T06:46:39.445Z,68.79
2023-02-18T06:49:03.116Z,69.02
2023-02-18T06:51:26.950Z,68.04
2023-02-18T06:53:50.641Z,68.48
2023-02-18T06:56:14.431Z,67.91
2023-02-18T06:58:38.109Z,69.28
2023-02-18T07:01:03.257Z,70.05
2023-02-18T07:03:27.095Z,68.58
2023-02-18T07:05:50.936Z,68.30
2023-02-18T07:08:14.864Z,68.77
2023-02-18T07:10:38.607Z,68.52
2023-02-18T07:13:02.345Z,68.39
2023-02-18T07:15:27.877Z,68.55
2023-02-18T07:17:53.186Z,67.96
2023-02-18T07:20:16.757Z,68.52
2023-02-18T07:22:40.422Z,68.18
2023-02-18T07:25:04.553Z,68.35
2023-02-18T07:27:28.276Z,68.23
2023-02-18T07:29:51.983Z,68.83
2023-02-18T07:32:17.070Z,69.68
2023-02-18T07:34:42.366Z,68.46
2023-02-18T07:37:09.288Z,67.45
2023-02-18T07:39:32.916Z,67.83
2023-02-18T07:41:56.983Z,68.81
2023-02-18T07:44:20.921Z,67.82
2023-02-18T07:46:46.677Z,68.53
2023-02-18T07:49:11.483Z,68.85
2023-02-18T07:51:38.737Z,68.99
2023-02-18T07:54:02.892Z,68.87
2023-02-18T07:56:27.584Z,69.88
2023-02-18T07:58:52.161Z,69.44
2023-02-18T08:01:17.960Z,69.57
2023-02-18T08:03:41.795Z,70.59
2023-02-18T08:06:07.601Z,71.23
2023-02-18T08:08:36.702Z,72.10
2023-02-18T08:11:13.265Z,72.70
2023-02-18T08:13:40.675Z,73.45
2023-02-18T08:16:04.377Z,73.79
2023-02-18T08:18:28.720Z,75.94
2023-02-18T08:20:52.894Z,76.27
2023-02-18T08:23:17.642Z,76.64
2023-02-18T08:25:43.335Z,76.84
2023-02-18T08:28:07.108Z,76.64
2023-02-18T08:30:30.832Z,77.36
2023-02-18T08:32:54.762Z,78.42
2023-02-18T08:35:18.714Z,77.99
2023-02-18T08:37:53.833Z,78.15
2023-02-18T08:40:18.779Z,78.67
2023-02-18T08:42:43.768Z,79.72
2023-02-18T08:45:09.278Z,79.76
2023-02-18T08:48:17.647Z,79.89
2023-02-18T08:50:16.877Z,79.87
2023-02-18T08:52:41.803Z,81.09
2023-02-18T08:55:06.740Z,81.92
2023-02-18T08:57:30.599Z,80.82
2023-02-18T08:59:55.655Z,82.53
2023-02-18T09:02:19.314Z,85.02
2023-02-18T09:04:43.194Z,83.63
2023-02-18T09:07:07.188Z,83.32
2023-02-18T09:09:30.948Z,82.89
2023-02-18T09:11:54.508Z,85.66
2023-02-18T09:14:18.186Z,84.86
2023-02-18T09:16:44.138Z,86.19
2023-02-18T09:19:08.169Z,87.14
2023-02-18T09:21:31.959Z,87.78
2023-02-18T09:23:55.722Z,88.80
2023-02-18T09:26:23.128Z,90.85
2023-02-18T09:28:46.975Z,89.50
2023-02-18T09:31:14.300Z,90.00
2023-02-18T09:33:41.311Z,88.99
2023-02-18T09:36:05.991Z,89.55
2023-02-18T09:38:29.704Z,90.18
2023-02-18T09:40:56.172Z,88.83
2023-02-18T09:43:30.937Z,88.93
2023-02-18T09:45:55.698Z,89.62
2023-02-18T09:48:19.360Z,90.64
2023-02-18T09:50:49.485Z,90.09
2023-02-18T09:53:14.565Z,89.77
2023-02-18T09:55:41.219Z,88.92
2023-02-18T09:58:08.096Z,88.94
2023-02-18T10:00:36.617Z,90.43
2023-02-18T10:03:05.923Z,92.72
2023-02-18T10:05:32.126Z,91.18
2023-02-18T10:08:02.517Z,91.34
2023-02-18T10:10:38.023Z,91.00
2023-02-18T10:13:03.238Z,91.98
2023-02-18T10:15:31.217Z,90.82
2023-02-18T10:17:57.817Z,90.16
2023-02-18T10:20:29.689Z,91.10
2023-02-18T10:22:57.400Z,89.19
2023-02-18T10:25:24.685Z,90.74
2023-02-18T10:27:50.814Z,90.39
2023-02-18T10:30:28.391Z,91.56
2023-02-18T10:32:57.410Z,91.59
2023-02-18T10:35:28.931Z,92.77
2023-02-18T10:38:07.990Z,94.00
2023-02-18T10:40:47.908Z,92.64
2023-02-18T10:43:23.183Z,92.75
2023-02-18T10:45:55.144Z,92.96
2023-02-18T10:48:45.580Z,95.20
2023-02-18T10:51:18.001Z,95.56
2023-02-18T10:53:45.331Z,95.80
2023-02-18T10:56:10.410Z,94.59
2023-02-18T10:58:36.443Z,95.04
2023-02-18T11:01:04.808Z,95.47
2023-02-18T11:03:41.137Z,95.96
2023-02-18T11:06:05.510Z,95.83
2023-02-18T11:08:39.272Z,95.95
2023-02-18T11:11:16.488Z,96.50
2023-02-18T11:13:43.025Z,96.45
2023-02-18T11:16:09.500Z,95.65
2023-02-18T11:18:40.392Z,96.68
2023-02-18T11:21:07.784Z,97.81
2023-02-18T11:23:33.480Z,96.86
2023-02-18T11:26:04.317Z,95.78
2023-02-18T11:28:40.927Z,97.38
2023-02-18T11:31:06.319Z,98.10
2023-02-18T11:33:36.572Z,97.28
2023-02-18T11:36:06.651Z,96.84
2023-02-18T11:38:46.474Z,96.82
2023-02-18T11:41:14.957Z,96.48
2023-02-18T11:43:42.890Z,98.96
2023-02-18T11:46:16.225Z,98.44
2023-02-18T11:48:41.261Z,97.20
2023-02-18T11:51:07.380Z,97.05
2023-02-18T11:53:34.646Z,95.44
2023-02-18T11:56:00.512Z,96.04
2023-02-18T11:58:26.164Z,97.51
2023-02-18T12:00:52.680Z,98.16
2023-02-18T12:03:34.732Z,100.00
2023-02-18T12:06:03.047Z,100.00
2023-02-18T12:08:31.729Z,99.65
2023-02-18T12:11:01.928Z,99.87
2023-02-18T12:13:32.448Z,100.00
2023-02-18T12:16:09.671Z,100.00
2023-02-18T12:19:09.686Z,100.00
2023-02-18T12:21:49.067Z,100.00
2023-02-18T12:24:35.033Z,100.00
2023-02-18T12:27:12.246Z,99.60
2023-02-18T12:29:57.109Z,100.00
2023-02-18T12:32:33.238Z,100.00
2023-02-18T12:35:29.891Z,100.00
2023-02-18T12:38:18.991Z,100.00
2023-02-18T12:41:17.264Z,100.00
2023-02-18T12:43:54.154Z,100.00
2023-02-18T12:46:47.676Z,100.00
2023-02-18T12:49:28.718Z,100.00
2023-02-18T12:52:06.942Z,100.00
2023-02-18T12:54:48.402Z,100.00
2023-02-18T12:57:36.089Z,100.00
2023-02-18T13:00:42.389Z,100.00
2023-02-18T13:04:02.089Z,100.00
2023-02-18T13:07:04.829Z,100.00
2023-02-18T13:09:42.128Z,100.00
2023-02-18T13:12:12.473Z,100.00
2023-02-18T13:14:47.892Z,100.00
2023-02-18T13:17:13.542Z,100.00
2023-02-18T13:19:53.741Z,100.00
2023-02-18T13:22:20.291Z,100.00
2023-02-18T13:24:47.315Z,100.00
2023-02-18T13:27:35.140Z,100.00
2023-02-18T13:30:18.392Z,100.00
2023-02-18T13:32:54.109Z,100.00
2023-02-18T13:35:26.923Z,100.00
2023-02-18T13:38:20.365Z,100.00
2023-02-18T13:40:45.125Z,100.00
2023-02-18T13:43:31.438Z,100.00
2023-02-18T13:46:10.627Z,100.00
2023-02-18T13:48:43.417Z,100.00
2023-02-18T13:51:08.972Z,100.00
2023-02-18T13:53:36.690Z,100.00
2023-02-18T13:56:05.782Z,100.00
2023-02-18T13:58:38.161Z,100.00
2023-02-18T14:01:06.905Z,100.00
2023-02-18T14:03:51.316Z,100.00
2023-02-18T14:06:25.471Z,100.00
2023-02-18T14:08:50.232Z,100.00
2023-02-18T14:11:43.836Z,100.00
2023-02-18T14:14:35.980Z,100.00
2023-02-18T14:17:37.185Z,100.00
2023-02-18T14:20:48.196Z,100.00
2023-02-18T14:24:00.401Z,100.00
2023-02-18T14:26:35.399Z,100.00
2023-02-18T14:29:06.946Z,100.00
2023-02-18T14:31:43.554Z,100.00
2023-02-18T14:34:39.396Z,100.00
2023-02-18T14:37:34.707Z,100.00
2023-02-18T14:40:21.988Z,100.00
2023-02-18T14:42:56.571Z,100.00
2023-02-18T14:45:34.678Z,100.00
2023-02-18T14:48:27.213Z,100.00
2023-02-18T14:50:53.014Z,100.00
2023-02-18T14:53:21.758Z,100.00
2023-02-18T14:55:50.271Z,100.00
2023-02-18T14:58:29.726Z,100.00
2023-02-18T15:00:53.447Z,100.00
2023-02-18T15:03:20.390Z,100.00
2023-02-18T15:05:45.247Z,100.00
2023-02-18T15:08:16.451Z,100.00
2023-02-18T15:10:44.744Z,100.00
2023-02-18T15:13:19.407Z,100.00
2023-02-18T15:15:46.582Z,100.00
2023-02-18T15:18:23.357Z,100.00
2023-02-18T15:20:47.122Z,100.00
2023-02-18T15:23:17.333Z,100.00
2023-02-18T15:25:41.093Z,100.00
2023-02-18T15:28:04.795Z,100.00
2023-02-18T15:30:32.432Z,100.00
2023-02-18T15:32:58.045Z,100.00
2023-02-18T15:35:25.001Z,100.00
2023-02-18T15:37:56.437Z,100.00
2023-02-18T15:40:20.613Z,100.00
2023-02-18T15:42:44.354Z,100.00
2023-02-18T15:45:20.606Z,100.00
2023-02-18T15:47:48.130Z,100.00
2023-02-18T15:50:19.754Z,100.00
2023-02-18T15:52:43.414Z,100.00
2023-02-18T15:55:16.742Z,100.00
2023-02-18T15:57:41.476Z,100.00
2023-02-18T16:00:14.979Z,100.00
2023-02-18T16:02:38.658Z,100.00
2023-02-18T16:05:05.516Z,100.00
2023-02-18T16:07:32.201Z,100.00
2023-02-18T16:10:22.820Z,100.00
2023-02-18T16:12:51.286Z,100.00
2023-02-18T16:15:20.636Z,100.00
2023-02-18T16:17:46.233Z,100.00
2023-02-18T16:20:27.252Z,100.00
2023-02-18T16:22:54.633Z,100.00
2023-02-18T16:25:22.879Z,100.00
2023-02-18T16:27:54.037Z,100.00
2023-02-18T16:30:20.635Z,100.00
2023-02-18T16:32:44.784Z,100.00
2023-02-18T16:35:09.415Z,100.00
2023-02-18T16:37:40.079Z,100.00
2023-02-18T16:40:05.665Z,100.00
2023-02-18T16:42:29.415Z,100.00
2023-02-18T16:44:53.055Z,100.00
2023-02-18T16:47:18.363Z,100.00
2023-02-18T16:49:44.366Z,100.00
2023-02-18T16:52:10.814Z,99.39
2023-02-18T16:54:35.914Z,99.17
2023-02-18T16:56:59.495Z,99.12
2023-02-18T16:59:23.138Z,99.64
2023-02-18T17:01:47.410Z,100.00
2023-02-18T17:04:14.562Z,100.00
2023-02-18T17:06:38.468Z,100.00
2023-02-18T17:09:02.089Z,99.79
2023-02-18T17:11:30.963Z,99.36
2023-02-18T17:13:58.170Z,99.78
2023-02-18T17:16:22.915Z,99.69
2023-02-18T17:18:47.544Z,98.59
2023-02-18T17:21:15.019Z,97.49
2023-02-18T17:23:38.642Z,99.38
2023-02-18T17:26:02.253Z,97.87
2023-02-18T17:28:27.315Z,98.19
2023-02-18T17:30:57.416Z,98.21
2023-02-18T17:33:21.374Z,97.46
2023-02-18T17:35:45.463Z,97.40
2023-02-18T17:38:12.756Z,97.28
2023-02-18T17:40:36.394Z,97.35
2023-02-18T17:43:00.118Z,97.08
2023-02-18T17:45:32.132Z,96.51
2023-02-18T17:47:56.885Z,97.29
2023-02-18T17:50:21.158Z,97.02
2023-02-18T17:52:45.010Z,97.57
2023-02-18T17:55:20.181Z,96.42
2023-02-18T17:57:44.961Z,97.31
2023-02-18T18:00:10.630Z,97.68
2023-02-18T18:02:38.470Z,96.86
2023-02-18T18:05:02.288Z,96.85
2023-02-18T18:07:25.894Z,97.51
2023-02-18T18:09:49.666Z,96.47
2023-02-18T18:12:16.584Z,95.99
2023-02-18T18:14:40.155Z,96.16
2023-02-18T18:17:03.832Z,96.01
2023-02-18T18:19:30.352Z,96.79
2023-02-18T18:21:54.019Z,95.82
2023-02-18T18:24:17.642Z,96.12
2023-02-18T18:26:41.862Z,96.30
2023-02-18T18:29:05.433Z,95.39
2023-02-18T18:31:29.362Z,96.63
2023-02-18T18:33:53.860Z,96.57
2023-02-18T18:36:20.764Z,96.00
2023-02-18T18:38:44.517Z,95.24
2023-02-18T18:41:11.593Z,95.48
2023-02-18T18:43:37.370Z,95.05
2023-02-18T18:46:01.752Z,94.33
2023-02-18T18:48:26.191Z,94.77
2023-02-18T18:50:50.572Z,94.36
2023-02-18T18:53:20.272Z,95.10
2023-02-18T18:55:44.549Z,93.87
2023-02-18T18:58:08.479Z,94.15
2023-02-18T19:00:35.184Z,94.30
2023-02-18T19:03:00.188Z,93.48
2023-02-18T19:05:28.894Z,94.70
2023-02-18T19:07:53.331Z,94.46
2023-02-18T19:10:19.494Z,94.72
2023-02-18T19:12:43.097Z,94.78
2023-02-18T19:15:07.393Z,94.63
2023-02-18T19:17:30.990Z,94.39
2023-02-18T19:19:55.088Z,95.02
2023-02-18T19:22:18.699Z,94.31
2023-02-18T19:24:42.949Z,94.95
2023-02-18T19:27:10.279Z,93.79
2023-02-18T19:29:33.954Z,94.08
2023-02-18T19:31:57.553Z,93.66
2023-02-18T19:34:21.642Z,94.07
2023-02-18T19:36:46.761Z,93.76
2023-02-18T19:39:10.498Z,93.57
2023-02-18T19:41:34.214Z,93.54
2023-02-18T19:43:59.361Z,93.92
2023-02-18T19:46:23.070Z,93.54
2023-02-18T19:48:51.042Z,93.76
2023-02-18T19:51:14.873Z,93.61
2023-02-18T19:53:38.805Z,92.30
2023-02-18T19:56:06.390Z,92.34
2023-02-18T19:58:30.925Z,92.47
2023-02-18T20:00:56.220Z,93.19
2023-02-18T20:03:19.958Z,93.51
2023-02-18T20:05:43.604Z,93.97
2023-02-18T20:08:07.278Z,92.58
2023-02-18T20:10:31.007Z,91.63
2023-02-18T20:12:55.276Z,92.86
2023-02-18T20:15:19.144Z,91.47
2023-02-18T20:17:44.311Z,91.96
2023-02-18T20:20:08.548Z,92.42
2023-02-18T20:22:32.336Z,91.82
2023-02-18T20:24:55.931Z,91.66
2023-02-18T20:27:19.956Z,92.98
2023-02-18T20:29:43.584Z,93.58
2023-02-18T20:32:08.207Z,92.86
2023-02-18T20:34:34.093Z,92.87
2023-02-18T20:36:58.176Z,92.96
2023-02-18T20:39:22.677Z,92.68
2023-02-18T20:41:47.906Z,93.08
2023-02-18T20:44:11.965Z,92.84
2023-02-18T20:46:37.370Z,91.81
2023-02-18T20:49:01.076Z,92.55
2023-02-18T20:51:26.604Z,92.10
2023-02-18T20:53:51.382Z,92.76
2023-02-18T20:56:16.028Z,93.38
2023-02-18T20:58:40.009Z,93.40
2023-02-18T21:01:06.116Z,93.32
2023-02-18T21:03:30.504Z,92.33
2023-02-18T21:05:58.159Z,92.11
2023-02-18T21:08:23.307Z,91.84
2023-02-18T21:10:47.066Z,92.02
2023-02-18T21:13:10.646Z,92.29
2023-02-18T21:15:34.283Z,90.90
2023-02-18T21:17:57.826Z,91.32
2023-02-18T21:20:21.600Z,92.16
2023-02-18T21:22:45.198Z,92.32
2023-02-18T21:25:10.569Z,92.67
2023-02-18T21:27:34.173Z,91.11
2023-02-18T21:30:00.912Z,91.68
2023-02-18T21:32:24.598Z,91.74
2023-02-18T21:34:48.365Z,91.20
2023-02-18T21:37:12.072Z,92.01
2023-02-18T21:39:35.783Z,91.53
2023-02-18T21:42:04.082Z,91.84
2023-02-18T21:44:41.241Z,91.73
2023-02-18T21:47:06.054Z,91.63
2023-02-18T21:49:29.649Z,92.15
2023-02-18T21:52:00.692Z,91.82
2023-02-18T21:54:27.475Z,91.10
2023-02-18T21:56:52.153Z,91.49
2023-02-18T21:59:17.698Z,91.68
2023-02-18T22:01:41.423Z,91.44
2023-02-18T22:04:05.695Z,91.09
2023-02-18T22:06:29.295Z,92.09
2023-02-18T22:08:52.933Z,93.55
2023-02-18T22:11:16.554Z,92.45
2023-02-18T22:13:40.230Z,92.44
2023-02-18T22:16:05.657Z,91.09
2023-02-18T22:18:32.686Z,92.78
2023-02-18T22:20:56.251Z,91.58
2023-02-18T22:23:19.931Z,91.34
2023-02-18T22:25:43.598Z,90.15
2023-02-18T22:28:07.574Z,91.23
2023-02-18T22:30:31.288Z,91.28
2023-02-18T22:32:56.346Z,90.90
2023-02-18T22:35:20.068Z,91.58
2023-02-18T22:37:43.708Z,90.60
2023-02-18T22:40:07.906Z,90.48
2023-02-18T22:42:31.600Z,91.58
2023-02-18T22:44:57.133Z,91.83
2023-02-18T22:47:20.841Z,90.91
2023-02-18T22:49:45.854Z,91.21
2023-02-18T22:52:09.567Z,90.26
2023-02-18T22:54:33.146Z,90.70
2023-02-18T22:56:56.783Z,90.01
2023-02-18T22:59:20.759Z,90.89
2023-02-18T23:01:49.791Z,92.18
2023-02-18T23:04:15.956Z,91.17
2023-02-18T23:06:43.994Z,89.86
2023-02-18T23:09:09.321Z,90.59
2023-02-18T23:11:33.072Z,90.12
2023-02-18T23:14:15.105Z,90.28
2023-02-18T23:16:53.621Z,89.45
2023-02-18T23:19:17.256Z,89.49
2023-02-18T23:21:42.218Z,90.18
2023-02-18T23:24:06.856Z,90.55
2023-02-18T23:26:30.388Z,90.22
2023-02-18T23:28:55.372Z,90.87
2023-02-18T23:31:21.210Z,90.29
2023-02-18T23:33:45.319Z,90.34
2023-02-18T23:36:14.586Z,90.88
2023-02-18T23:38:39.679Z,90.30
2023-02-18T23:41:03.334Z,89.30
2023-02-18T23:43:27.024Z,89.44
2023-02-18T23:45:50.636Z,90.62
2023-02-18T23:48:14.283Z,90.10
2023-02-18T23:50:37.854Z,90.66
2023-02-18T23:53:01.540Z,89.49
2023-02-18T23:55:26.611Z,89.54
2023-02-18T23:57:50.267Z,90.19
